Time;durP1;ratioP1;P1;durP2;ratioP2;P2;SDS_P1;SDS_P2;PMS_P1;PMS_P2;Temp;Humidity;BMP_temperature;BMP_pressure;BME280_temperature;BME280_humidity;BME280_pressure;Samples;Min_cycle;Max_cycle;Signal;HPM_P1;HPM_P2
2024/04/12 00:01:44;;;;;;;4.60;4.20;;;;;;;;;;5416867;26;20426;-81
2024/04/12 00:04:15;;;;;;;3.83;3.53;;;;;;;;;;5416810;26;20332;-81
2024/04/12 00:06:41;;;;;;;5.38;4.22;;;;;;;;;;5416389;26;20328;-81
2024/04/12 00:09:17;;;;;;;5.18;4.65;;;;;;;;;;5416607;26;20366;-81
2024/04/12 00:11:43;;;;;;;4.43;4.03;;;;;;;;;;5416421;26;20364;-81
2024/04/12 00:14:09;;;;;;;4.72;4.32;;;;;;;;;;5416431;26;20327;-81
2024/04/12 00:16:38;;;;;;;5.03;4.60;;;;;;;;;;5416387;26;20368;-81
2024/04/12 00:19:12;;;;;;;5.07;4.60;;;;;;;;;;5413938;26;20881;-81
2024/04/12 00:21:41;;;;;;;6.00;4.72;;;;;;;;;;5415401;26;20868;-81
2024/04/12 00:24:10;;;;;;;5.95;5.30;;;;;;;;;;5417081;26;20730;-81
2024/04/12 00:26:36;;;;;;;7.15;5.65;;;;;;;;;;5416851;26;20379;-81
2024/04/12 00:29:07;;;;;;;6.10;5.38;;;;;;;;;;5417230;26;20456;-81
2024/04/12 00:31:42;;;;;;;7.10;6.30;;;;;;;;;;5417550;26;20324;-81
2024/04/12 00:34:08;;;;;;;6.65;6.05;;;;;;;;;;5417331;26;20804;-81
2024/04/12 00:36:34;;;;;;;6.47;5.80;;;;;;;;;;5417221;26;20364;-81
2024/04/12 00:39:01;;;;;;;6.15;5.60;;;;;;;;;;5417135;26;20446;-81
2024/04/12 00:41:29;;;;;;;6.05;5.55;;;;;;;;;;5417019;26;20383;-81
2024/04/12 00:43:55;;;;;;;7.15;5.80;;;;;;;;;;5417072;26;20336;-81
2024/04/12 00:46:25;;;;;;;6.20;5.63;;;;;;;;;;5407190;26;20727;-81
2024/04/12 00:48:52;;;;;;;6.30;5.70;;;;;;;;;;5411809;26;20343;-81
2024/04/12 00:51:18;;;;;;;5.80;5.30;;;;;;;;;;5416884;26;20328;-81
2024/04/12 00:53:48;;;;;;;5.93;5.43;;;;;;;;;;5417451;26;20392;-81
2024/04/12 00:56:15;;;;;;;5.30;4.90;;;;;;;;;;5416914;26;20339;-81
2024/04/12 00:58:42;;;;;;;5.20;4.70;;;;;;;;;;5417088;26;20391;-81
2024/04/12 01:01:15;;;;;;;4.82;4.30;;;;;;;;;;5415838;26;20335;-81
2024/04/12 01:03:46;;;;;;;4.78;4.38;;;;;;;;;;5415824;26;20332;-81
2024/04/12 01:06:15;;;;;;;4.97;4.00;;;;;;;;;;5417167;26;20822;-81
2024/04/12 01:08:43;;;;;;;4.35;3.95;;;;;;;;;;5417566;26;20845;-81
2024/04/12 01:11:11;;;;;;;5.13;4.57;;;;;;;;;;5416875;26;20852;-81
2024/04/12 01:13:37;;;;;;;4.90;4.40;;;;;;;;;;5417516;26;20332;-81
2024/04/12 01:16:05;;;;;;;5.20;4.70;;;;;;;;;;5416749;26;20367;-81
2024/04/12 01:18:32;;;;;;;5.10;4.65;;;;;;;;;;5416381;26;20451;-81
2024/04/12 01:21:00;;;;;;;5.47;4.97;;;;;;;;;;5415222;26;20360;-81
2024/04/12 01:23:27;;;;;;;5.40;4.85;;;;;;;;;;5414823;26;20332;-81
2024/04/12 01:25:56;;;;;;;5.63;4.80;;;;;;;;;;5416886;26;20332;-81
2024/04/12 01:28:22;;;;;;;5.57;4.32;;;;;;;;;;5416431;26;20380;-81
2024/04/12 01:30:48;;;;;;;4.97;4.30;;;;;;;;;;5415854;26;20379;-81
2024/04/12 01:33:14;;;;;;;5.25;4.75;;;;;;;;;;5416553;26;20377;-81
2024/04/12 01:35:44;;;;;;;4.93;4.53;;;;;;;;;;5416714;26;20335;-81
2024/04/12 01:38:17;;;;;;;5.07;4.68;;;;;;;;;;5416632;26;20339;-81
2024/04/12 01:40:46;;;;;;;5.22;4.70;;;;;;;;;;5416820;26;20331;-81
2024/04/12 01:43:18;;;;;;;4.50;4.10;;;;;;;;;;5416802;26;20360;-81
2024/04/12 01:45:44;;;;;;;5.03;4.53;;;;;;;;;;5414958;26;20328;-81
2024/04/12 01:48:11;;;;;;;5.03;4.53;;;;;;;;;;5401083;26;20323;-81
2024/04/12 01:50:40;;;;;;;4.70;4.30;;;;;;;;;;5415723;26;20365;-81
2024/04/12 01:53:09;;;;;;;4.70;4.30;;;;;;;;;;5415713;26;20362;-81
2024/04/12 01:55:39;;;;;;;4.20;3.90;;;;;;;;;;5415966;26;20366;-81
2024/04/12 01:58:05;;;;;;;6.00;4.77;;;;;;;;;;5415259;26;20368;-81
2024/04/12 02:00:33;;;;;;;4.75;4.25;;;;;;;;;;5416106;26;20386;-81
2024/04/12 02:02:59;;;;;;;4.80;4.40;;;;;;;;;;5416247;26;20698;-81
2024/04/12 02:05:32;;;;;;;4.70;4.30;;;;;;;;;;5416166;26;20426;-81
2024/04/12 02:07:59;;;;;;;5.32;4.15;;;;;;;;;;5414576;26;20427;-81
2024/04/12 02:10:26;;;;;;;4.27;3.87;;;;;;;;;;5415663;26;20336;-81
2024/04/12 02:12:55;;;;;;;4.00;3.63;;;;;;;;;;5413969;26;20356;-81
2024/04/12 02:15:28;;;;;;;4.57;4.18;;;;;;;;;;5419282;26;20335;-81
2024/04/12 02:17:57;;;;;;;4.20;3.80;;;;;;;;;;5419769;26;20849;-81
2024/04/12 02:20:36;;;;;;;5.65;3.85;;;;;;;;;;5419362;26;20328;-81
2024/04/12 02:23:05;;;;;;;4.03;3.70;;;;;;;;;;5407728;26;20335;-81
2024/04/12 02:25:35;;;;;;;4.70;4.20;;;;;;;;;;5420430;26;20328;-81
2024/04/12 02:28:07;;;;;;;4.57;4.13;;;;;;;;;;5420156;26;20922;-81
2024/04/12 02:30:41;;;;;;;4.38;4.00;;;;;;;;;;5419519;26;20331;-81
2024/04/12 02:33:08;;;;;;;4.67;4.27;;;;;;;;;;5419687;26;20332;-81
2024/04/12 02:35:34;;;;;;;4.13;3.72;;;;;;;;;;5419753;26;20331;-81
2024/04/12 02:38:00;;;;;;;3.87;3.57;;;;;;;;;;5419741;26;20336;-81
2024/04/12 02:40:26;;;;;;;4.07;3.78;;;;;;;;;;5419834;26;20462;-81
2024/04/12 02:42:52;;;;;;;4.28;3.88;;;;;;;;;;5419161;26;20380;-81
2024/04/12 02:45:18;;;;;;;4.43;4.13;;;;;;;;;;5419631;26;20414;-81
2024/04/12 02:47:44;;;;;;;4.28;3.95;;;;;;;;;;5403355;26;20331;-81
2024/04/12 02:50:10;;;;;;;4.90;4.50;;;;;;;;;;5418608;26;20881;-81
2024/04/12 02:52:43;;;;;;;6.00;5.10;;;;;;;;;;5415821;26;20512;-81
2024/04/12 02:55:12;;;;;;;5.43;4.93;;;;;;;;;;5418855;26;20327;-81
2024/04/12 02:57:41;;;;;;;5.15;4.70;;;;;;;;;;5419637;26;20327;-81
2024/04/12 03:00:23;;;;;;;4.63;4.20;;;;;;;;;;5419546;26;20327;-81
2024/04/12 03:02:53;;;;;;;6.40;4.40;;;;;;;;;;5419583;26;20363;-81
2024/04/12 03:05:25;;;;;;;4.82;4.35;;;;;;;;;;5419913;26;20363;-81
2024/04/12 03:07:52;;;;;;;4.30;3.95;;;;;;;;;;5419339;26;20360;-81
2024/04/12 03:10:18;;;;;;;4.65;4.25;;;;;;;;;;5418804;26;20706;-81
2024/04/12 03:12:51;;;;;;;4.90;4.40;;;;;;;;;;5419694;26;20356;-81
2024/04/12 03:15:21;;;;;;;4.97;4.53;;;;;;;;;;5419538;26;20813;-81
2024/04/12 03:17:47;;;;;;;4.70;4.28;;;;;;;;;;5419205;26;20324;-81
2024/04/12 03:20:18;;;;;;;5.10;4.60;;;;;;;;;;5418188;26;20327;-81
2024/04/12 03:22:44;;;;;;;5.05;4.65;;;;;;;;;;5418552;26;20328;-81
2024/04/12 03:25:10;;;;;;;5.63;4.40;;;;;;;;;;5415150;26;20373;-81
2024/04/12 03:27:38;;;;;;;6.53;5.00;;;;;;;;;;5418386;26;20340;-81
2024/04/12 03:30:13;;;;;;;5.20;4.80;;;;;;;;;;5418184;26;20430;-81
2024/04/12 03:32:44;;;;;;;4.80;4.40;;;;;;;;;;5418737;26;20328;-81
2024/04/12 03:35:10;;;;;;;4.80;4.38;;;;;;;;;;5415751;26;20859;-81
2024/04/12 03:37:39;;;;;;;4.97;4.50;;;;;;;;;;5417915;26;20323;-81
2024/04/12 03:40:15;;;;;;;5.45;4.95;;;;;;;;;;5418888;26;20364;-81
2024/04/12 03:42:41;;;;;;;5.03;4.53;;;;;;;;;;5419206;26;20370;-81
2024/04/12 03:45:12;;;;;;;4.72;4.20;;;;;;;;;;5418528;26;20882;-81
2024/04/12 03:47:41;;;;;;;4.70;4.30;;;;;;;;;;5418642;26;20331;-81
2024/04/12 03:50:13;;;;;;;4.80;4.40;;;;;;;;;;5418116;26;20374;-81
2024/04/12 03:52:41;;;;;;;4.55;4.25;;;;;;;;;;5418389;26;20805;-81
2024/04/12 03:55:09;;;;;;;5.10;4.60;;;;;;;;;;5418853;26;20343;-81
2024/04/12 03:57:38;;;;;;;5.10;4.65;;;;;;;;;;5418503;26;20323;-81
2024/04/12 04:00:10;;;;;;;5.60;4.45;;;;;;;;;;5418650;26;20339;-81
2024/04/12 04:02:36;;;;;;;4.68;4.22;;;;;;;;;;5418239;26;20816;-81
2024/04/12 04:05:13;;;;;;;5.07;4.63;;;;;;;;;;5418192;26;20669;-81
2024/04/12 04:07:41;;;;;;;4.97;4.45;;;;;;;;;;5417355;26;20706;-81
2024/04/12 04:10:14;;;;;;;4.75;4.35;;;;;;;;;;5417917;26;20383;-81
2024/04/12 04:12:44;;;;;;;4.78;4.38;;;;;;;;;;5418482;26;20430;-81
2024/04/12 04:15:14;;;;;;;5.32;4.82;;;;;;;;;;5418429;26;20360;-81
2024/04/12 04:17:41;;;;;;;5.15;4.50;;;;;;;;;;5418195;26;20368;-81
2024/04/12 04:20:10;;;;;;;4.60;4.20;;;;;;;;;;5417690;26;20340;-81
2024/04/12 04:25:07;;;;;;;6.20;4.40;;;;;;;;;;5418039;26;20371;-81
2024/04/12 04:27:34;;;;;;;4.70;4.30;;;;;;;;;;5415695;26;20372;-81
2024/04/12 04:30:00;;;;;;;5.07;4.57;;;;;;;;;;5417984;26;20433;-81
2024/04/12 04:32:27;;;;;;;4.68;4.28;;;;;;;;;;5418181;26;20367;-81
2024/04/12 04:35:05;;;;;;;5.07;4.57;;;;;;;;;;5418403;26;20364;-81
2024/04/12 04:37:31;;;;;;;4.97;4.47;;;;;;;;;;5417162;26;20332;-81
2024/04/12 04:39:58;;;;;;;5.00;4.60;;;;;;;;;;5417611;26;20331;-81
2024/04/12 04:42:25;;;;;;;5.18;4.65;;;;;;;;;;5418149;26;20359;-81
2024/04/12 04:44:51;;;;;;;5.30;4.70;;;;;;;;;;5417886;26;20360;-81
2024/04/12 04:47:17;;;;;;;5.20;4.80;;;;;;;;;;5402171;26;20433;-81
2024/04/12 04:49:43;;;;;;;5.13;4.72;;;;;;;;;;5417412;26;20375;-81
2024/04/12 04:52:09;;;;;;;5.47;4.70;;;;;;;;;;5417747;26;20332;-81
2024/04/12 04:54:39;;;;;;;4.82;4.43;;;;;;;;;;5417870;26;20331;-81
2024/04/12 04:57:06;;;;;;;5.47;4.55;;;;;;;;;;5417669;26;20426;-81
2024/04/12 04:59:32;;;;;;;5.65;5.05;;;;;;;;;;5418314;26;20331;-81
2024/04/12 05:02:00;;;;;;;5.57;5.07;;;;;;;;;;5418001;26;20337;-82
2024/04/12 05:04:31;;;;;;;5.70;5.20;;;;;;;;;;5416574;26;20332;-81
2024/04/12 05:07:01;;;;;;;5.50;5.00;;;;;;;;;;5417079;26;20343;-80
2024/04/12 05:09:27;;;;;;;5.47;4.97;;;;;;;;;;5417147;26;21087;-81
2024/04/12 05:11:54;;;;;;;5.45;5.05;;;;;;;;;;5417035;26;20332;-81
2024/04/12 05:17:05;;;;;;;5.53;5.03;;;;;;;;;;5417564;26;20339;-81
2024/04/12 05:19:40;;;;;;;7.13;5.00;;;;;;;;;;5417497;26;20682;-81
2024/04/12 05:22:19;;;;;;;5.43;4.80;;;;;;;;;;5416815;26;21075;-81
2024/04/12 05:24:45;;;;;;;4.88;4.47;;;;;;;;;;5417313;26;20347;-81
2024/04/12 05:27:11;;;;;;;5.13;4.70;;;;;;;;;;5415786;26;20466;-81
2024/04/12 05:29:38;;;;;;;6.00;5.35;;;;;;;;;;5404930;26;20336;-81
2024/04/12 05:32:06;;;;;;;5.88;5.35;;;;;;;;;;5417357;26;20339;-81
2024/04/12 05:34:32;;;;;;;6.07;5.50;;;;;;;;;;5417625;26;20372;-81
2024/04/12 05:37:03;;;;;;;6.20;5.70;;;;;;;;;;5417649;26;20356;-81
2024/04/12 05:39:41;;;;;;;5.90;5.40;;;;;;;;;;5416351;26;20339;-80
2024/04/12 05:42:09;;;;;;;5.82;5.30;;;;;;;;;;5416052;26;20397;-81
2024/04/12 05:44:36;;;;;;;5.93;5.43;;;;;;;;;;5416678;26;20872;-80
2024/04/12 05:47:05;;;;;;;6.20;5.60;;;;;;;;;;5399414;26;20847;-80
2024/04/12 05:49:33;;;;;;;7.13;6.53;;;;;;;;;;5418160;26;20379;-80
2024/04/12 05:52:01;;;;;;;6.00;5.50;;;;;;;;;;5419201;26;20331;-80
2024/04/12 05:54:33;;;;;;;6.35;5.75;;;;;;;;;;5420804;26;20809;-80
2024/04/12 05:56:59;;;;;;;6.30;5.80;;;;;;;;;;5419752;26;20778;-80
2024/04/12 05:59:25;;;;;;;7.55;6.78;;;;;;;;;;5419732;26;20339;-80
2024/04/12 06:01:51;;;;;;;10.95;7.45;;;;;;;;;;5419363;26;20339;-81
2024/04/12 06:04:19;;;;;;;9.18;8.32;;;;;;;;;;5419409;26;20707;-80
2024/04/12 06:06:46;;;;;;;8.52;7.32;;;;;;;;;;5419943;26;20331;-81
2024/04/12 06:09:21;;;;;;;11.30;8.07;;;;;;;;;;5419942;26;20342;-81
2024/04/12 06:11:50;;;;;;;8.68;7.88;;;;;;;;;;5418534;26;20371;-80
2024/04/12 06:14:16;;;;;;;10.57;8.98;;;;;;;;;;5420397;26;20331;-81
2024/04/12 06:16:43;;;;;;;11.90;8.70;;;;;;;;;;5420515;26;20447;-81
2024/04/12 06:19:12;;;;;;;9.87;8.17;;;;;;;;;;5418880;26;20440;-81
2024/04/12 06:21:38;;;;;;;9.73;8.80;;;;;;;;;;5419272;26;20328;-81
2024/04/12 06:24:08;;;;;;;9.88;8.70;;;;;;;;;;5419065;26;20371;-81
2024/04/12 06:26:39;;;;;;;8.85;8.05;;;;;;;;;;5418522;26;20378;-81
2024/04/12 06:29:06;;;;;;;8.70;7.80;;;;;;;;;;5419823;26;20447;-81
2024/04/12 06:31:35;;;;;;;11.05;9.10;;;;;;;;;;5419660;26;20864;-81
2024/04/12 06:34:04;;;;;;;9.65;8.52;;;;;;;;;;5419862;26;20808;-81
2024/04/12 06:36:34;;;;;;;9.05;8.15;;;;;;;;;;5419190;26;20876;-81
2024/04/12 06:39:04;;;;;;;9.70;8.15;;;;;;;;;;5419437;26;20347;-81
2024/04/12 06:41:31;;;;;;;9.98;8.98;;;;;;;;;;5418971;26;20364;-81
2024/04/12 06:43:57;;;;;;;10.73;8.55;;;;;;;;;;5418827;26;20332;-81
2024/04/12 06:46:27;;;;;;;15.27;11.63;;;;;;;;;;5408709;26;20982;-81
2024/04/12 06:48:59;;;;;;;12.65;10.80;;;;;;;;;;5414973;26;20343;-81
2024/04/12 06:51:26;;;;;;;16.20;11.95;;;;;;;;;;5419238;26;20368;-81
2024/04/12 06:53:54;;;;;;;14.15;12.07;;;;;;;;;;5416935;26;20350;-81
2024/04/12 06:56:22;;;;;;;15.70;11.35;;;;;;;;;;5419071;26;20324;-81
2024/04/12 06:58:48;;;;;;;12.60;11.15;;;;;;;;;;5418990;26;20890;-81
2024/04/12 07:01:15;;;;;;;12.50;10.95;;;;;;;;;;5418942;26;20422;-81
2024/04/12 07:03:45;;;;;;;13.75;11.38;;;;;;;;;;5418247;26;20820;-81
2024/04/12 07:06:14;;;;;;;12.93;10.35;;;;;;;;;;5418411;26;20412;-81
2024/04/12 07:08:49;;;;;;;17.13;11.25;;;;;;;;;;5418644;26;20363;-81
2024/04/12 07:11:16;;;;;;;12.43;10.23;;;;;;;;;;5418279;26;20328;-81
2024/04/12 07:13:49;;;;;;;10.40;9.30;;;;;;;;;;5419393;26;20555;-82
2024/04/12 07:16:16;;;;;;;11.07;9.95;;;;;;;;;;5418869;26;20746;-81
2024/04/12 07:18:42;;;;;;;16.65;10.82;;;;;;;;;;5418809;26;20332;-81
2024/04/12 07:21:15;;;;;;;13.83;10.83;;;;;;;;;;5418415;26;20325;-81
2024/04/12 07:23:42;;;;;;;14.02;11.10;;;;;;;;;;5419030;26;20368;-81
2024/04/12 07:26:14;;;;;;;14.02;11.73;;;;;;;;;;5418808;26;20867;-81
2024/04/12 07:28:40;;;;;;;17.92;12.88;;;;;;;;;;5418115;26;20669;-81
2024/04/12 07:31:06;;;;;;;15.30;12.35;;;;;;;;;;5417934;26;20387;-81
2024/04/12 07:33:34;;;;;;;19.03;13.63;;;;;;;;;;5418601;26;20836;-81
2024/04/12 07:36:00;;;;;;;24.55;16.25;;;;;;;;;;5418418;26;20824;-81
2024/04/12 07:38:29;;;;;;;18.45;13.05;;;;;;;;;;5418356;26;20327;-81
2024/04/12 07:40:55;;;;;;;16.30;11.35;;;;;;;;;;5418759;26;20446;-81
2024/04/12 07:43:23;;;;;;;14.60;11.02;;;;;;;;;;5416844;26;20347;-81
2024/04/12 07:45:50;;;;;;;13.60;11.52;;;;;;;;;;5415600;26;20323;-81
2024/04/12 07:50:46;;;;;;;13.15;10.95;;;;;;;;;;5417431;26;20331;-81
2024/04/12 07:53:21;;;;;;;14.02;10.85;;;;;;;;;;5417811;26;20370;-81
2024/04/12 07:56:07;;;;;;;14.63;11.43;;;;;;;;;;5416788;26;20331;-81
2024/04/12 07:58:37;;;;;;;14.03;11.33;;;;;;;;;;5417576;26;20875;-81
2024/04/12 08:01:09;;;;;;;17.02;12.27;;;;;;;;;;5417691;26;20729;-81
2024/04/12 08:03:50;;;;;;;16.00;12.57;;;;;;;;;;5418052;26;20327;-81
2024/04/12 08:06:19;;;;;;;14.95;12.77;;;;;;;;;;5418483;26;20376;-81
2024/04/12 08:09:03;;;;;;;18.88;13.40;;;;;;;;;;5418411;26;20360;-81
2024/04/12 08:11:34;;;;;;;17.45;14.98;;;;;;;;;;5416960;26;20459;-81
2024/04/12 08:14:06;;;;;;;17.57;13.63;;;;;;;;;;5418410;26;20327;-81
2024/04/12 08:16:36;;;;;;;13.45;11.18;;;;;;;;;;5416502;26;20327;-80
2024/04/12 08:19:13;;;;;;;11.60;10.40;;;;;;;;;;5418174;26;20379;-80
2024/04/12 08:21:42;;;;;;;11.80;10.55;;;;;;;;;;5416498;26;20328;-80
2024/04/12 08:24:15;;;;;;;15.87;10.77;;;;;;;;;;5414621;26;20347;-80
2024/04/12 08:26:47;;;;;;;16.88;12.43;;;;;;;;;;5415577;26;20364;-80
2024/04/12 08:29:23;;;;;;;17.40;13.18;;;;;;;;;;5417059;26;20869;-80
2024/04/12 08:31:49;;;;;;;19.55;13.45;;;;;;;;;;5417086;26;20339;-80
2024/04/12 08:34:15;;;;;;;17.05;13.20;;;;;;;;;;5417206;26;20371;-79
2024/04/12 08:36:43;;;;;;;28.08;14.32;;;;;;;;;;5416455;26;20836;-79
2024/04/12 08:39:12;;;;;;;16.50;12.25;;;;;;;;;;5415997;26;20331;-81
2024/04/12 08:41:38;;;;;;;19.25;13.05;;;;;;;;;;5416940;26;20375;-79
2024/04/12 08:44:10;;;;;;;16.70;11.25;;;;;;;;;;5417539;26;20849;-78
2024/04/12 08:46:37;;;;;;;14.80;11.45;;;;;;;;;;5403738;26;20322;-77
2024/04/12 08:49:04;;;;;;;18.90;11.75;;;;;;;;;;5414007;26;20379;-79
2024/04/12 08:51:34;;;;;;;15.70;11.27;;;;;;;;;;5414171;26;20441;-78
2024/04/12 08:54:04;;;;;;;18.20;11.55;;;;;;;;;;5416021;26;20323;-79
2024/04/12 08:56:30;;;;;;;14.43;10.70;;;;;;;;;;5418364;26;20459;-81
2024/04/12 08:58:59;;;;;;;14.70;12.47;;;;;;;;;;5418066;26;20368;-79
2024/04/12 09:01:26;;;;;;;15.93;13.55;;;;;;;;;;5417174;26;20331;-79
2024/04/12 09:04:03;;;;;;;162.93;115.22;;;;;;;;;;5416891;26;20335;-80
2024/04/12 09:06:34;;;;;;;15.90;10.10;;;;;;;;;;5416991;26;20363;-81
2024/04/12 09:09:00;;;;;;;12.13;10.00;;;;;;;;;;5416703;26;20327;-83
2024/04/12 09:11:26;;;;;;;11.65;10.05;;;;;;;;;;5416835;26;20387;-80
2024/04/12 09:13:53;;;;;;;11.90;9.77;;;;;;;;;;5416808;26;20404;-82
2024/04/12 09:16:19;;;;;;;15.63;12.20;;;;;;;;;;5416765;26;20363;-83
2024/04/12 09:18:51;;;;;;;11.43;9.80;;;;;;;;;;5415498;26;20332;-83
2024/04/12 09:21:24;;;;;;;10.73;9.57;;;;;;;;;;5415964;26;20836;-84
2024/04/12 09:23:56;;;;;;;10.57;9.53;;;;;;;;;;5418411;26;20331;-82
2024/04/12 09:26:22;;;;;;;15.80;10.48;;;;;;;;;;5418937;26;20399;-82
2024/04/12 09:28:56;;;;;;;11.65;9.25;;;;;;;;;;5419484;26;20362;-83
2024/04/12 09:34:24;;;;;;;12.25;9.85;;;;;;;;;;5418280;26;20379;-82
2024/04/12 09:37:02;;;;;;;11.73;9.80;;;;;;;;;;5418285;26;20437;-82
2024/04/12 09:42:17;;;;;;;10.23;9.27;;;;;;;;;;5417717;26;20923;-84
2024/04/12 09:44:49;;;;;;;10.38;9.40;;;;;;;;;;5419665;26;20331;-83
2024/04/12 10:40:11;;;;;;;8.60;7.80;;;;;;;;;;5425146;26;20351;-79
2024/04/12 10:42:45;;;;;;;8.85;8.07;;;;;;;;;;5418738;26;20343;-79
2024/04/12 10:45:15;;;;;;;8.93;8.02;;;;;;;;;;5418723;26;20335;-80
2024/04/12 10:47:44;;;;;;;9.90;8.83;;;;;;;;;;5400746;26;20481;-80
2024/04/12 10:50:10;;;;;;;10.07;8.95;;;;;;;;;;5417629;26;20844;-80
2024/04/12 10:52:38;;;;;;;85.40;18.70;;;;;;;;;;5417711;26;20369;-80
2024/04/12 10:55:08;;;;;;;9.35;8.43;;;;;;;;;;5417962;26;20328;-80
2024/04/12 10:57:34;;;;;;;12.57;8.00;;;;;;;;;;5417651;26;20946;-79
2024/04/12 11:00:01;;;;;;;9.43;8.40;;;;;;;;;;5418111;26;20362;-79
2024/04/12 11:02:27;;;;;;;9.57;8.60;;;;;;;;;;5418725;26;20428;-80
2024/04/12 11:07:39;;;;;;;162.38;123.32;;;;;;;;;;5417132;26;20864;-78
2024/04/12 11:10:05;;;;;;;41.00;26.13;;;;;;;;;;5418331;26;20364;-78
2024/04/12 11:12:40;;;;;;;8.80;7.97;;;;;;;;;;5418934;26;20409;-78
2024/04/12 11:31:47;;;;;;;8.30;7.13;;;;;;;;;;5418094;26;20458;-80
2024/04/12 11:34:17;;;;;;;7.15;6.45;;;;;;;;;;5418582;26;20339;-81
2024/04/12 11:36:44;;;;;;;6.90;6.20;;;;;;;;;;5417668;26;20422;-81
2024/04/12 11:39:17;;;;;;;7.50;6.70;;;;;;;;;;5417925;26;20374;-81
2024/04/12 11:41:46;;;;;;;6.50;5.90;;;;;;;;;;5419638;26;20746;-80
2024/04/12 11:44:19;;;;;;;181.15;122.95;;;;;;;;;;5419136;26;20368;-81
2024/04/12 11:46:45;;;;;;;5.22;4.30;;;;;;;;;;5406443;26;20701;-82
2024/04/12 11:49:12;;;;;;;5.25;4.75;;;;;;;;;;5420264;26;20379;-83
2024/04/12 11:51:38;;;;;;;5.30;4.80;;;;;;;;;;5420681;26;20458;-82
2024/04/12 11:54:05;;;;;;;3.97;2.65;;;;;;;;;;5419751;26;20335;-81
2024/04/12 11:56:34;;;;;;;4.10;2.30;;;;;;;;;;5422231;26;20430;-82
2024/04/12 11:59:03;;;;;;;3.28;2.20;;;;;;;;;;5419821;26;20324;-81
2024/04/12 12:01:29;;;;;;;4.68;2.30;;;;;;;;;;5418532;26;20762;-81
2024/04/12 12:03:58;;;;;;;2.67;2.10;;;;;;;;;;5418037;26;20323;-77
2024/04/12 12:06:25;;;;;;;25.95;15.25;;;;;;;;;;5413162;26;20388;-78
2024/04/12 12:08:57;;;;;;;4.47;2.10;;;;;;;;;;5416236;26;20359;-80
2024/04/12 12:11:27;;;;;;;4.45;2.63;;;;;;;;;;5418616;26;20323;-79
2024/04/12 12:13:54;;;;;;;2.30;2.00;;;;;;;;;;5416537;26;20368;-78
2024/04/12 12:16:20;;;;;;;6.03;3.28;;;;;;;;;;5415590;26;20848;-78
2024/04/12 12:18:46;;;;;;;5.13;2.92;;;;;;;;;;5416662;26;20411;-77
2024/04/12 12:21:14;;;;;;;51.72;27.83;;;;;;;;;;5416686;26;20425;-77
2024/04/12 12:23:40;;;;;;;49.70;25.33;;;;;;;;;;5414742;26;20923;-77
2024/04/12 12:26:08;;;;;;;39.23;22.97;;;;;;;;;;5414842;26;20356;-77
2024/04/12 12:28:34;;;;;;;3.85;2.45;;;;;;;;;;5414209;26;20327;-77
2024/04/12 12:31:00;;;;;;;3.30;2.35;;;;;;;;;;5414193;26;20327;-77
2024/04/12 12:33:33;;;;;;;4.40;2.25;;;;;;;;;;5418408;26;20336;-81
2024/04/12 12:35:59;;;;;;;4.93;2.38;;;;;;;;;;5424968;26;20324;-80
2024/04/12 12:38:25;;;;;;;3.87;2.27;;;;;;;;;;5422493;26;20352;-80
2024/04/12 12:40:51;;;;;;;15.90;3.47;;;;;;;;;;5421855;26;20352;-80
2024/04/12 12:43:19;;;;;;;7.50;4.28;;;;;;;;;;5418281;26;20327;-79
2024/04/12 12:45:45;;;;;;;9.02;4.70;;;;;;;;;;5417500;26;20426;-80
2024/04/12 12:48:22;;;;;;;4.45;4.00;;;;;;;;;;5406690;26;20437;-80
2024/04/12 12:50:50;;;;;;;6.83;4.43;;;;;;;;;;5420650;26;20428;-76
2024/04/12 12:53:19;;;;;;;6.05;3.85;;;;;;;;;;5414191;26;20332;-76
2024/04/12 12:55:47;;;;;;;4.40;4.00;;;;;;;;;;5413999;26;20735;-76
2024/04/12 12:58:18;;;;;;;6.50;3.90;;;;;;;;;;5416030;26;20359;-79
2024/04/12 13:00:45;;;;;;;6.00;4.20;;;;;;;;;;5417678;26;20328;-79
2024/04/12 13:03:12;;;;;;;6.28;4.45;;;;;;;;;;5418236;26;20360;-78
2024/04/12 13:05:45;;;;;;;7.72;3.88;;;;;;;;;;5417750;26;20840;-79
2024/04/12 13:08:15;;;;;;;6.15;4.55;;;;;;;;;;5425747;26;20327;-80
2024/04/12 13:10:41;;;;;;;6.07;4.40;;;;;;;;;;5425704;26;20323;-80
2024/04/12 13:13:07;;;;;;;51.33;46.63;;;;;;;;;;5423898;26;20327;-80
2024/04/12 13:15:33;;;;;;;299.80;169.77;;;;;;;;;;5427364;26;20327;-82
2024/04/12 13:18:00;;;;;;;6.22;3.97;;;;;;;;;;5423533;26;20339;-83
2024/04/12 13:20:26;;;;;;;8.07;3.78;;;;;;;;;;5423206;26;20327;-82
2024/04/12 13:22:52;;;;;;;5.00;2.95;;;;;;;;;;5426757;26;20382;-83
2024/04/12 13:25:18;;;;;;;7.53;3.55;;;;;;;;;;5427694;26;20327;-79
2024/04/12 13:27:47;;;;;;;4.25;3.33;;;;;;;;;;5421993;26;20339;-83
2024/04/12 13:30:14;;;;;;;73.13;8.98;;;;;;;;;;5421508;26;20356;-83
2024/04/12 13:32:48;;;;;;;53.03;7.63;;;;;;;;;;5427229;26;20328;-82
2024/04/12 13:35:14;;;;;;;3.28;2.55;;;;;;;;;;5426942;26;20393;-82
2024/04/12 13:37:42;;;;;;;5.83;3.67;;;;;;;;;;5429155;26;20785;-82
2024/04/12 13:40:18;;;;;;;5.00;2.92;;;;;;;;;;5423053;26;20335;-83
2024/04/12 13:42:46;;;;;;;11.25;3.75;;;;;;;;;;5427851;26;20316;-80
2024/04/12 13:50:56;;;;;;;4.40;2.90;;;;;;;;;;5424996;26;20369;-82
2024/04/12 13:53:32;;;;;;;4.78;2.85;;;;;;;;;;5422062;26;20335;-81
2024/04/12 13:56:19;;;;;;;3.90;2.55;;;;;;;;;;5420458;26;20340;-79
2024/04/12 13:59:10;;;;;;;2.97;2.63;;;;;;;;;;5419479;26;20359;-84
2024/04/12 14:01:40;;;;;;;6.03;2.10;;;;;;;;;;5396361;26;20364;-84
2024/04/12 14:04:09;;;;;;;4.53;1.77;;;;;;;;;;5419630;26;20335;-82
2024/04/12 14:06:36;;;;;;;3.15;1.65;;;;;;;;;;5418591;26;20360;-84
2024/04/12 14:09:03;;;;;;;4.18;1.40;;;;;;;;;;5421380;26;20742;-82
2024/04/12 14:11:29;;;;;;;3.03;2.10;;;;;;;;;;5421999;26;20332;-85
2024/04/12 14:13:56;;;;;;;58.10;48.60;;;;;;;;;;5420087;26;20335;-82
2024/04/12 14:16:28;;;;;;;3.88;1.77;;;;;;;;;;5420295;26;20332;-82
2024/04/12 14:18:55;;;;;;;16.90;15.10;;;;;;;;;;5419396;26;20332;-84
2024/04/12 14:21:21;;;;;;;3.08;1.70;;;;;;;;;;5420080;26;20407;-83
2024/04/12 14:23:47;;;;;;;2.95;1.35;;;;;;;;;;5420478;26;21240;-84
2024/04/12 14:26:13;;;;;;;4.25;1.70;;;;;;;;;;5418440;26;20380;-85
2024/04/12 14:28:40;;;;;;;7.00;1.73;;;;;;;;;;5418559;26;20402;-85
2024/04/12 14:31:06;;;;;;;5.40;1.90;;;;;;;;;;5420303;26;20339;-83
2024/04/12 14:33:32;;;;;;;1.70;1.58;;;;;;;;;;5418825;26;20328;-81
2024/04/12 14:36:02;;;;;;;15.50;3.20;;;;;;;;;;5421826;26;20336;-83
2024/04/12 14:38:29;;;;;;;3.60;1.77;;;;;;;;;;5418839;26;20328;-82
2024/04/12 14:40:59;;;;;;;2.28;1.50;;;;;;;;;;5419055;26;20339;-82
2024/04/12 14:43:25;;;;;;;2.85;1.35;;;;;;;;;;5396981;26;20342;-81
2024/04/12 14:45:51;;;;;;;2.88;1.65;;;;;;;;;;5419023;26;20331;-82
2024/04/12 14:48:17;;;;;;;6.10;4.28;;;;;;;;;;5419136;26;20511;-82
2024/04/12 14:50:48;;;;;;;6.30;2.58;;;;;;;;;;5418152;26;20328;-83
2024/04/12 14:53:14;;;;;;;5.88;3.22;;;;;;;;;;5414645;26;20348;-82
2024/04/12 14:55:40;;;;;;;5.63;2.60;;;;;;;;;;5417186;26;20324;-82
2024/04/12 14:58:07;;;;;;;310.83;216.02;;;;;;;;;;5418320;26;20817;-85
2024/04/12 15:00:33;;;;;;;3.03;1.90;;;;;;;;;;5418323;26;20327;-84
2024/04/12 15:49:24;;;;;;;3.78;1.40;;;;;;;;;;5396509;26;20356;-81
2024/04/12 15:51:53;;;;;;;4.57;1.30;;;;;;;;;;5419395;26;20441;-81
2024/04/12 15:54:21;;;;;;;3.45;1.20;;;;;;;;;;5419677;26;20371;-81
2024/04/12 16:10:48;;;;;;;2.07;1.10;;;;;;;;;;5417640;26;20375;-80
2024/04/12 16:13:14;;;;;;;2.47;1.00;;;;;;;;;;5417973;26;20328;-80
2024/04/12 16:15:41;;;;;;;1.80;1.10;;;;;;;;;;5418072;26;20712;-80
2024/04/12 16:18:07;;;;;;;3.13;1.10;;;;;;;;;;5417722;26;20456;-79
2024/04/12 16:20:34;;;;;;;1.90;1.50;;;;;;;;;;5418197;26;20335;-80
2024/04/12 16:23:00;;;;;;;1.95;1.20;;;;;;;;;;5418024;26;20339;-80
2024/04/12 16:25:26;;;;;;;3.10;1.30;;;;;;;;;;5417966;26;20363;-80
2024/04/12 16:27:55;;;;;;;2.30;1.15;;;;;;;;;;5417546;26;20713;-80
2024/04/12 16:30:21;;;;;;;2.20;0.98;;;;;;;;;;5417427;26;20328;-80
2024/04/12 16:32:46;;;;;;;12.60;7.32;;;;;;;;;;5416704;26;20478;-80
2024/04/12 16:35:13;;;;;;;3.05;1.10;;;;;;;;;;5417189;26;20331;-80
2024/04/12 16:37:39;;;;;;;3.42;1.20;;;;;;;;;;5417225;26;20327;-80
2024/04/12 16:40:05;;;;;;;2.60;1.20;;;;;;;;;;5418712;26;20344;-80
2024/04/12 16:42:31;;;;;;;2.47;1.40;;;;;;;;;;5418386;26;20440;-80
2024/04/12 16:44:57;;;;;;;3.67;1.00;;;;;;;;;;5417937;26;20350;-80
2024/04/12 16:47:24;;;;;;;2.45;1.00;;;;;;;;;;5403441;26;20335;-80
2024/04/12 16:49:50;;;;;;;2.95;1.02;;;;;;;;;;5418972;26;20328;-80
2024/04/12 16:52:19;;;;;;;5.15;0.95;;;;;;;;;;5417865;26;20335;-80
2024/04/12 16:54:45;;;;;;;1.50;0.90;;;;;;;;;;5418039;26;20340;-80
2024/04/12 16:57:12;;;;;;;2.90;0.95;;;;;;;;;;5419031;26;20372;-80
2024/04/12 16:59:39;;;;;;;3.10;0.90;;;;;;;;;;5418877;26;20366;-80
2024/04/12 17:02:05;;;;;;;1.87;1.03;;;;;;;;;;5418408;26;20375;-80
2024/04/12 17:04:31;;;;;;;2.60;0.90;;;;;;;;;;5418756;26;20343;-80
2024/04/12 17:06:56;;;;;;;3.28;1.15;;;;;;;;;;5417269;26;20323;-80
2024/04/12 17:09:24;;;;;;;4.25;1.00;;;;;;;;;;5417600;26;20367;-82
2024/04/12 17:11:50;;;;;;;3.00;0.90;;;;;;;;;;5418543;26;20829;-80
2024/04/12 17:14:16;;;;;;;1.50;0.80;;;;;;;;;;5417776;26;20383;-80
2024/04/12 17:16:42;;;;;;;3.40;0.90;;;;;;;;;;5418544;26;20816;-80